createdAt,value
2019-03-09T00:02:53.014Z,7.03
2019-03-09T00:05:58.012Z,6.33
2019-03-09T00:09:03.027Z,9.93
2019-03-09T00:12:08.027Z,5.40
2019-03-09T00:15:13.151Z,5.70
2019-03-09T00:18:18.320Z,5.40
2019-03-09T00:21:23.493Z,5.97
2019-03-09T00:24:50.456Z,5.03
2019-03-09T00:28:09.718Z,10.30
2019-03-09T00:31:33.806Z,6.67
2019-03-09T00:34:38.806Z,8.03
2019-03-09T00:37:43.806Z,7.03
2019-03-09T00:40:48.808Z,8.83
2019-03-09T00:43:53.823Z,5.63
2019-03-09T00:46:58.744Z,4.63
2019-03-09T00:50:04.367Z,8.27
2019-03-09T00:53:09.446Z,4.27
2019-03-09T00:56:14.454Z,7.47
2019-03-09T00:59:19.447Z,9.57
2019-03-09T01:02:24.652Z,4.37
2019-03-09T01:05:29.714Z,4.63
2019-03-09T01:08:34.798Z,5.03
2019-03-09T01:11:39.811Z,5.60
2019-03-09T01:14:44.878Z,4.67
2019-03-09T01:17:49.898Z,5.73
2019-03-09T01:20:54.884Z,3.63
2019-03-09T01:23:59.819Z,4.57
2019-03-09T01:27:04.899Z,4.47
2019-03-09T01:30:12.974Z,5.27
2019-03-09T01:33:17.966Z,6.60
2019-03-09T01:36:23.047Z,5.80
2019-03-09T01:39:28.116Z,4.97
2019-03-09T01:42:33.122Z,6.73
2019-03-09T01:45:38.235Z,5.17
2019-03-09T01:48:43.239Z,4.67
2019-03-09T01:51:48.190Z,5.83
2019-03-09T01:54:53.199Z,5.40
2019-03-09T01:57:58.138Z,3.80
2019-03-09T02:01:03.231Z,9.07
2019-03-09T02:04:08.351Z,4.43
2019-03-09T02:07:13.431Z,4.10
2019-03-09T02:10:18.545Z,4.87
2019-03-09T02:13:23.638Z,4.47
2019-03-09T02:16:28.732Z,4.43
2019-03-09T02:19:33.825Z,4.17
2019-03-09T02:22:38.841Z,4.93
2019-03-09T02:25:43.939Z,5.67
2019-03-09T02:28:48.898Z,4.47
2019-03-09T02:31:53.916Z,4.20
2019-03-09T02:34:59.421Z,7.43
2019-03-09T02:38:21.634Z,5.10
2019-03-09T02:41:26.840Z,6.00
2019-03-09T02:44:31.861Z,3.67
2019-03-09T02:47:36.972Z,6.73
2019-03-09T02:50:55.520Z,4.23
2019-03-09T02:54:00.609Z,4.10
2019-03-09T02:57:05.715Z,5.13
2019-03-09T03:00:13.684Z,3.10
2019-03-09T03:03:18.788Z,4.50
2019-03-09T03:06:23.889Z,5.50
2019-03-09T03:09:28.888Z,5.20
2019-03-09T03:12:33.916Z,4.07
2019-03-09T03:15:38.923Z,4.20
2019-03-09T03:18:44.000Z,6.63
2019-03-09T03:21:49.102Z,7.80
2019-03-09T03:24:54.124Z,4.70
2019-03-09T03:27:59.202Z,3.40
2019-03-09T03:31:04.405Z,7.13
2019-03-09T03:34:09.457Z,3.80
2019-03-09T03:37:14.547Z,3.97
2019-03-09T03:40:19.716Z,3.97
2019-03-09T03:43:24.738Z,3.60
2019-03-09T03:46:29.824Z,3.57
2019-03-09T03:49:34.847Z,4.37
2019-03-09T03:52:39.932Z,4.10
2019-03-09T03:55:44.962Z,4.80
2019-03-09T03:58:50.064Z,8.87
2019-03-09T04:01:58.873Z,3.70
2019-03-09T04:05:04.391Z,7.37
2019-03-09T04:08:09.493Z,3.70
2019-03-09T04:11:14.586Z,4.17
2019-03-09T04:14:19.715Z,8.67
2019-03-09T04:17:24.784Z,7.03
2019-03-09T04:20:29.923Z,5.67
2019-03-09T04:23:35.032Z,3.53
2019-03-09T04:26:40.133Z,3.93
2019-03-09T04:29:45.143Z,4.90
2019-03-09T04:32:50.162Z,4.23
2019-03-09T04:35:55.095Z,4.40
2019-03-09T04:39:01.030Z,6.10
2019-03-09T04:42:06.119Z,4.20
2019-03-09T04:45:11.367Z,7.53
2019-03-09T04:48:16.346Z,5.07
2019-03-09T04:51:21.333Z,3.20
2019-03-09T04:54:26.369Z,3.23
2019-03-09T04:57:31.416Z,2.70
2019-03-09T05:00:36.418Z,3.20
2019-03-09T05:03:41.399Z,3.40
2019-03-09T05:06:46.406Z,7.10
2019-03-09T05:10:08.785Z,3.63
2019-03-09T05:13:23.333Z,3.00
2019-03-09T05:16:28.367Z,6.03
2019-03-09T05:19:33.326Z,2.57
2019-03-09T05:22:38.270Z,8.63
2019-03-09T05:25:43.230Z,5.03
2019-03-09T05:28:48.229Z,5.23
2019-03-09T05:31:53.176Z,2.87
2019-03-09T05:34:58.118Z,4.03
2019-03-09T05:38:03.214Z,3.93
2019-03-09T05:41:08.148Z,4.13
2019-03-09T05:44:13.238Z,4.00
2019-03-09T05:47:18.243Z,2.40
2019-03-09T05:50:23.431Z,2.50
2019-03-09T05:53:28.471Z,2.80
2019-03-09T05:56:33.891Z,3.90
2019-03-09T05:59:39.123Z,3.50
2019-03-09T06:02:44.214Z,2.93
2019-03-09T06:06:04.850Z,2.30
2019-03-09T06:09:09.961Z,3.10
2019-03-09T06:12:14.907Z,2.10
2019-03-09T06:15:19.940Z,2.80
2019-03-09T06:18:25.041Z,4.13
2019-03-09T06:21:30.059Z,4.60
2019-03-09T06:24:35.136Z,2.20
2019-03-09T06:27:40.164Z,3.20
2019-03-09T06:30:45.253Z,2.50
2019-03-09T06:33:52.139Z,5.27
2019-03-09T06:37:05.605Z,2.30
2019-03-09T06:40:10.714Z,3.80
2019-03-09T06:43:15.635Z,2.77
2019-03-09T06:46:20.663Z,3.00
2019-03-09T06:49:26.045Z,2.70
2019-03-09T06:52:31.180Z,3.30
2019-03-09T06:55:36.203Z,1.83
2019-03-09T06:58:41.227Z,1.77
2019-03-09T07:01:46.300Z,4.20
2019-03-09T07:04:51.610Z,2.00
2019-03-09T07:08:00.635Z,2.97
2019-03-09T07:11:05.828Z,2.47
2019-03-09T07:14:46.299Z,1.47
2019-03-09T07:18:00.011Z,2.57
2019-03-09T07:21:05.162Z,2.00
2019-03-09T07:24:10.108Z,1.37
2019-03-09T07:27:15.154Z,1.67
2019-03-09T07:30:20.171Z,3.43
2019-03-09T07:33:25.203Z,1.90
2019-03-09T07:36:30.366Z,1.53
2019-03-09T07:39:35.670Z,2.43
2019-03-09T07:42:40.662Z,2.00
2019-03-09T07:45:45.731Z,1.60
2019-03-09T07:48:50.740Z,2.23
2019-03-09T07:51:55.691Z,2.30
2019-03-09T07:55:00.784Z,1.97
2019-03-09T07:58:06.714Z,1.97
2019-03-09T08:01:11.802Z,1.37
2019-03-09T08:04:16.826Z,1.50
2019-03-09T08:07:21.750Z,2.90
2019-03-09T08:10:27.065Z,2.10
2019-03-09T08:13:32.091Z,1.50
2019-03-09T08:16:37.199Z,3.53
2019-03-09T08:19:42.166Z,4.17
2019-03-09T08:22:47.479Z,1.43
2019-03-09T08:25:52.606Z,1.20
2019-03-09T08:28:57.829Z,2.23
2019-03-09T08:32:02.920Z,1.63
2019-03-09T08:35:08.132Z,1.80
2019-03-09T08:38:13.727Z,1.83
2019-03-09T08:41:18.768Z,2.40
2019-03-09T08:44:23.704Z,1.40
2019-03-09T08:47:28.745Z,1.30
2019-03-09T08:50:33.737Z,1.80
2019-03-09T08:53:38.677Z,1.10
2019-03-09T08:56:44.196Z,1.47
2019-03-09T08:59:49.219Z,2.00
2019-03-09T09:02:54.256Z,1.07
2019-03-09T09:06:00.848Z,1.63
2019-03-09T09:09:06.782Z,1.17
2019-03-09T09:12:11.831Z,1.40
2019-03-09T09:15:16.959Z,1.40
2019-03-09T09:18:21.995Z,1.23
2019-03-09T09:21:27.337Z,1.53
2019-03-09T09:24:32.667Z,1.07
2019-03-09T09:27:37.911Z,1.07
2019-03-09T09:30:42.971Z,1.83
2019-03-09T09:33:48.005Z,1.47
2019-03-09T09:36:53.126Z,1.10
2019-03-09T09:39:58.219Z,1.50
2019-03-09T09:43:03.380Z,1.40
2019-03-09T09:46:08.479Z,1.10
2019-03-09T09:49:13.446Z,2.67
2019-03-09T09:52:18.525Z,1.53
2019-03-09T09:55:23.488Z,1.53
2019-03-09T09:58:28.531Z,0.90
2019-03-09T10:01:33.645Z,1.90
2019-03-09T10:04:38.702Z,5.47
2019-03-09T10:07:43.731Z,0.80
2019-03-09T10:10:48.755Z,1.40
2019-03-09T10:13:53.710Z,1.60
2019-03-09T10:16:58.820Z,1.10
2019-03-09T10:20:03.963Z,1.77
2019-03-09T10:23:09.007Z,2.73
2019-03-09T10:26:14.024Z,1.30
2019-03-09T10:29:19.086Z,0.87
2019-03-09T10:32:24.098Z,1.00
2019-03-09T10:35:29.212Z,0.90
2019-03-09T10:38:34.231Z,2.10
2019-03-09T10:41:39.189Z,1.63
2019-03-09T10:44:44.155Z,1.50
2019-03-09T10:47:49.960Z,1.23
2019-03-09T10:50:54.907Z,1.87
2019-03-09T10:53:59.868Z,1.10
2019-03-09T10:57:04.965Z,1.43
2019-03-09T11:00:13.940Z,0.97
2019-03-09T11:03:19.042Z,0.70
2019-03-09T11:06:24.082Z,0.93
2019-03-09T11:09:29.035Z,0.87
2019-03-09T11:12:34.201Z,1.10
2019-03-09T11:15:39.307Z,1.10
2019-03-09T11:18:44.270Z,0.90
2019-03-09T11:21:49.370Z,0.93
2019-03-09T11:25:03.133Z,1.00
2019-03-09T11:28:10.702Z,2.20
2019-03-09T11:31:15.795Z,1.90
2019-03-09T11:34:20.759Z,3.60
2019-03-09T11:37:27.390Z,1.30
2019-03-09T11:40:32.555Z,1.80
2019-03-09T11:43:37.514Z,1.30
2019-03-09T11:46:42.603Z,1.40
2019-03-09T11:49:47.560Z,1.50
2019-03-09T11:52:52.574Z,1.27
2019-03-09T11:55:57.692Z,1.40
2019-03-09T11:59:02.726Z,1.27
2019-03-09T12:02:07.839Z,2.00
2019-03-09T12:05:12.860Z,1.93
2019-03-09T12:08:17.894Z,1.20
2019-03-09T12:11:23.168Z,1.37
2019-03-09T12:14:28.385Z,1.00
2019-03-09T12:17:33.375Z,1.00
2019-03-09T12:20:38.687Z,0.90
2019-03-09T12:23:43.911Z,1.00
2019-03-09T12:26:49.008Z,1.00
2019-03-09T12:29:54.110Z,0.87
2019-03-09T12:32:59.179Z,1.90
2019-03-09T12:36:04.265Z,0.90
2019-03-09T12:39:10.564Z,1.40
2019-03-09T12:42:15.575Z,1.97
2019-03-09T12:45:20.699Z,0.90
2019-03-09T12:48:25.702Z,1.00
2019-03-09T12:51:30.866Z,1.70
2019-03-09T12:54:35.888Z,1.10
2019-03-09T12:57:40.930Z,1.30
2019-03-09T13:00:46.022Z,0.77
2019-03-09T13:03:51.128Z,1.03
2019-03-09T13:06:56.313Z,0.80
2019-03-09T13:10:05.462Z,1.50
2019-03-09T13:36:48.490Z,0.70
2019-03-09T13:39:53.638Z,0.93
2019-03-09T13:42:58.742Z,1.33
2019-03-09T13:46:03.858Z,1.90
2019-03-09T13:49:09.016Z,0.90
2019-03-09T13:52:14.124Z,1.10
2019-03-09T13:55:19.238Z,1.50
2019-03-09T13:58:24.306Z,1.33
2019-03-09T14:01:29.471Z,0.70
2019-03-09T14:04:34.527Z,2.23
2019-03-09T14:07:39.578Z,1.40
2019-03-09T14:10:44.709Z,1.33
2019-03-09T14:13:49.822Z,1.70
2019-03-09T14:16:54.979Z,1.40
2019-03-09T14:20:00.332Z,1.20
2019-03-09T14:23:05.584Z,1.90
2019-03-09T14:26:10.603Z,1.93
2019-03-09T14:29:15.725Z,1.03
2019-03-09T14:32:20.682Z,0.90
2019-03-09T14:35:25.803Z,2.13
2019-03-09T14:38:30.827Z,3.57
2019-03-09T14:41:35.802Z,1.90
2019-03-09T14:44:40.822Z,1.17
2019-03-09T14:47:46.248Z,1.33
2019-03-09T14:50:51.283Z,2.33
2019-03-09T14:53:56.255Z,1.50
2019-03-09T14:57:01.285Z,0.90
2019-03-09T15:00:08.727Z,1.20
2019-03-09T15:03:13.751Z,1.80
2019-03-09T15:06:18.725Z,1.00
2019-03-09T15:09:23.838Z,1.37
2019-03-09T15:12:28.876Z,1.50
2019-03-09T15:15:33.935Z,1.47
2019-03-09T15:18:39.049Z,1.10
2019-03-09T15:21:44.252Z,1.20
2019-03-09T15:24:49.233Z,1.70
2019-03-09T15:27:54.259Z,1.23
2019-03-09T15:30:59.436Z,1.60
2019-03-09T15:34:04.548Z,1.13
2019-03-09T15:37:09.658Z,0.80
2019-03-09T15:40:17.216Z,1.20
2019-03-09T15:43:22.559Z,1.27
2019-03-09T15:46:27.515Z,1.17
2019-03-09T15:49:32.558Z,1.27
2019-03-09T15:52:37.679Z,1.20
2019-03-09T15:55:42.707Z,1.50
2019-03-09T15:58:47.723Z,1.20
2019-03-09T16:01:52.783Z,0.77
2019-03-09T16:04:57.806Z,0.90
2019-03-09T16:08:02.955Z,1.07
2019-03-09T16:11:07.966Z,1.17
2019-03-09T16:14:13.024Z,1.13
2019-03-09T16:17:18.042Z,1.50
2019-03-09T16:20:23.196Z,0.90
2019-03-09T16:23:28.366Z,0.90
2019-03-09T16:26:33.479Z,1.00
2019-03-09T16:29:38.438Z,2.17
2019-03-09T16:32:43.563Z,0.70
2019-03-09T16:35:48.744Z,0.87
2019-03-09T16:38:53.790Z,1.20
2019-03-09T16:41:58.887Z,1.50
2019-03-09T16:45:04.095Z,0.97
2019-03-09T16:48:09.208Z,1.33
2019-03-09T16:51:14.324Z,1.50
2019-03-09T16:54:19.464Z,1.60
2019-03-09T16:57:24.508Z,1.07
2019-03-09T17:00:29.655Z,3.33
2019-03-09T17:03:34.774Z,2.20
2019-03-09T17:06:39.735Z,0.90
2019-03-09T17:09:44.788Z,0.97
2019-03-09T17:12:50.031Z,1.10
2019-03-09T17:15:55.162Z,1.30
2019-03-09T17:19:00.239Z,1.10
2019-03-09T17:22:05.293Z,0.90
2019-03-09T17:25:10.533Z,1.00
2019-03-09T17:28:15.509Z,0.90
2019-03-09T17:31:20.530Z,0.90
2019-03-09T17:34:25.561Z,2.40
2019-03-09T17:37:30.514Z,1.37
2019-03-09T17:40:35.644Z,1.10
2019-03-09T17:43:40.702Z,1.67
2019-03-09T17:46:45.812Z,1.70
2019-03-09T17:49:50.784Z,1.40
2019-03-09T17:52:55.890Z,1.10
2019-03-09T17:56:00.836Z,1.83
2019-03-09T17:59:05.859Z,4.03
2019-03-09T18:02:10.984Z,1.37
2019-03-09T18:05:16.383Z,1.70
2019-03-09T18:08:21.419Z,1.23
2019-03-09T18:11:26.644Z,1.40
2019-03-09T18:14:31.578Z,1.60
2019-03-09T18:17:36.655Z,2.33
2019-03-09T18:20:41.787Z,1.73
2019-03-09T18:23:46.930Z,2.07
2019-03-09T18:26:51.988Z,2.50
2019-03-09T18:29:57.124Z,2.47
2019-03-09T18:33:02.079Z,1.40
2019-03-09T18:36:07.293Z,2.57
2019-03-09T18:39:12.425Z,3.47
2019-03-09T18:42:17.483Z,3.70
2019-03-09T18:45:22.739Z,2.70
2019-03-09T18:48:27.780Z,2.77
2019-03-09T18:51:32.883Z,1.90
2019-03-09T18:54:37.956Z,6.30
2019-03-09T18:57:43.111Z,6.07
2019-03-09T19:00:48.287Z,3.50
2019-03-09T19:03:53.322Z,2.03
2019-03-09T19:06:58.481Z,4.10
2019-03-09T19:10:03.598Z,3.00
2019-03-09T19:13:08.555Z,2.10
2019-03-09T19:16:13.646Z,2.43
2019-03-09T19:19:18.861Z,5.03
2019-03-09T19:22:23.894Z,3.37
2019-03-09T19:25:29.003Z,4.80
2019-03-09T19:28:33.954Z,2.33
2019-03-09T19:31:38.998Z,3.83
2019-03-09T19:34:44.090Z,2.93
2019-03-09T19:37:49.198Z,2.77
2019-03-09T19:40:54.294Z,3.30
2019-03-09T19:43:59.247Z,3.30
2019-03-09T19:47:04.334Z,4.10
2019-03-09T19:50:11.738Z,3.07
2019-03-09T19:53:16.793Z,4.77
2019-03-09T19:56:22.017Z,5.73
2019-03-09T19:59:27.041Z,7.50
2019-03-09T20:02:32.303Z,4.50
2019-03-09T20:05:37.248Z,4.63
2019-03-09T20:08:42.355Z,4.03
2019-03-09T20:11:47.376Z,4.50
2019-03-09T20:14:52.423Z,8.53
2019-03-09T20:17:57.559Z,5.43
2019-03-09T20:21:02.609Z,5.63
2019-03-09T20:24:07.714Z,6.10
2019-03-09T20:27:12.686Z,4.80
2019-03-09T20:30:17.882Z,4.70
2019-03-09T20:33:22.842Z,5.03
2019-03-09T20:36:27.943Z,3.93
2019-03-09T20:39:32.908Z,2.63
2019-03-09T20:42:38.112Z,9.07
2019-03-09T20:45:43.062Z,5.47
2019-03-09T20:48:48.153Z,7.23
2019-03-09T20:51:53.279Z,8.03
2019-03-09T20:54:58.243Z,7.00
2019-03-09T20:58:03.259Z,8.10
2019-03-09T21:01:08.282Z,7.40
2019-03-09T21:04:13.321Z,8.80
2019-03-09T21:07:18.314Z,11.23
2019-03-09T21:10:23.530Z,12.17
2019-03-09T21:13:28.487Z,8.93
2019-03-09T21:16:33.431Z,10.63
2019-03-09T21:19:38.455Z,10.93
2019-03-09T21:22:43.490Z,9.40
2019-03-09T21:25:48.554Z,10.60
2019-03-09T21:28:53.635Z,11.43
2019-03-09T21:31:58.791Z,11.13
2019-03-09T21:35:03.894Z,10.90
2019-03-09T21:38:09.007Z,10.87
2019-03-09T21:41:14.031Z,9.83
2019-03-09T21:44:19.263Z,11.57
2019-03-09T21:47:24.272Z,9.13
2019-03-09T21:50:29.684Z,9.47
2019-03-09T21:53:34.701Z,11.37
2019-03-09T21:56:39.750Z,9.40
2019-03-09T21:59:44.838Z,10.17
2019-03-09T22:02:50.585Z,10.40
2019-03-09T22:06:05.328Z,13.60
2019-03-09T22:09:03.495Z,8.17
2019-03-09T22:12:08.446Z,14.03
2019-03-09T22:15:13.583Z,11.90
2019-03-09T22:18:18.596Z,11.13
2019-03-09T22:21:24.859Z,12.00
2019-03-09T22:24:30.075Z,13.13
2019-03-09T22:27:35.101Z,9.70
2019-03-09T22:30:40.251Z,7.33
2019-03-09T22:33:45.355Z,13.33
2019-03-09T22:36:50.306Z,9.40
2019-03-09T22:39:55.379Z,13.17
2019-03-09T22:43:07.218Z,8.27
2019-03-09T22:46:12.251Z,10.63
2019-03-09T22:49:17.258Z,7.80
2019-03-09T22:52:22.294Z,10.00
2019-03-09T22:55:27.309Z,13.00
2019-03-09T22:58:32.422Z,12.10
2019-03-09T23:01:37.535Z,10.00
2019-03-09T23:04:42.634Z,13.27
2019-03-09T23:07:47.789Z,7.20
2019-03-09T23:10:52.752Z,10.07
2019-03-09T23:13:57.873Z,10.93
2019-03-09T23:17:02.891Z,7.53
2019-03-09T23:20:09.594Z,9.30
2019-03-09T23:23:14.661Z,10.27
2019-03-09T23:26:19.771Z,10.80
2019-03-09T23:29:24.779Z,8.77
2019-03-09T23:32:29.903Z,12.40
2019-03-09T23:35:35.055Z,13.20
2019-03-09T23:38:40.156Z,8.90
2019-03-09T23:41:45.243Z,11.57
2019-03-09T23:44:50.357Z,9.97
2019-03-09T23:47:55.612Z,12.73
2019-03-09T23:51:00.711Z,10.50
2019-03-09T23:54:05.808Z,10.43
2019-03-09T23:57:10.903Z,9.07
